Time;durP1;ratioP1;P1;durP2;ratioP2;P2;SDS_P1;SDS_P2;PMS_P1;PMS_P2;Temp;Humidity;BMP_temperature;BMP_pressure;BME280_temperature;BME280_humidity;BME280_pressure;Samples;Min_cycle;Max_cycle;Signal;HPM_P1;HPM_P2
2023/07/09 00:02:17;;;;;;;3.90;2.90;;;20.40;99.90;;;;;;6191901;23;20091;-83
2023/07/09 00:04:43;;;;;;;3.28;2.38;;;20.40;99.90;;;;;;6218248;23;20028;-82
2023/07/09 00:07:30;;;;;;;3.78;2.88;;;20.40;99.90;;;;;;6217248;23;20020;-82
2023/07/09 00:09:56;;;;;;;2.85;2.00;;;20.40;99.90;;;;;;6220394;23;20017;-82
2023/07/09 00:12:23;;;;;;;4.45;1.90;;;20.40;99.90;;;;;;6227595;23;20068;-82
2023/07/09 00:14:48;;;;;;;3.53;2.05;;;20.30;99.90;;;;;;6223443;23;20048;-84
2023/07/09 00:17:30;;;;;;;3.45;2.28;;;20.20;99.90;;;;;;6218509;23;20347;-83
2023/07/09 00:19:57;;;;;;;3.15;1.98;;;20.20;99.90;;;;;;6194510;23;20873;-83
2023/07/09 00:22:23;;;;;;;5.28;3.30;;;20.10;99.90;;;;;;6228143;23;20079;-82
2023/07/09 00:24:50;;;;;;;3.90;2.45;;;20.10;99.90;;;;;;6229939;23;20090;-83
2023/07/09 00:27:18;;;;;;;4.40;2.88;;;20.00;99.90;;;;;;6229785;23;20035;-87
2023/07/09 00:29:44;;;;;;;4.25;3.08;;;20.00;99.90;;;;;;6230961;23;20017;-82
2023/07/09 00:32:15;;;;;;;3.75;2.72;;;20.00;99.90;;;;;;6231018;23;20025;-84
2023/07/09 00:34:48;;;;;;;3.92;2.72;;;20.10;99.90;;;;;;6203799;23;20028;-83
2023/07/09 00:37:15;;;;;;;4.22;3.30;;;20.00;99.90;;;;;;6230003;23;20020;-84
2023/07/09 00:39:41;;;;;;;3.13;2.35;;;20.00;99.90;;;;;;6229977;23;20020;-83
2023/07/09 00:42:17;;;;;;;4.28;3.88;;;20.00;99.90;;;;;;6228802;23;20052;-83
2023/07/09 00:44:51;;;;;;;4.35;2.35;;;20.00;99.90;;;;;;6227135;23;20035;-83
2023/07/09 00:47:41;;;;;;;3.22;2.25;;;20.00;99.90;;;;;;6223053;23;20016;-83
2023/07/09 00:50:28;;;;;;;4.20;2.60;;;19.90;99.90;;;;;;6222900;23;20029;-83
2023/07/09 00:53:05;;;;;;;6.15;5.65;;;19.90;99.90;;;;;;6221753;23;20443;-87
2023/07/09 00:55:37;;;;;;;3.83;2.70;;;19.90;99.90;;;;;;6221812;23;20110;-85
2023/07/09 00:58:05;;;;;;;4.18;2.90;;;19.80;99.90;;;;;;6221332;23;20379;-85
2023/07/09 01:00:42;;;;;;;5.65;5.15;;;19.80;99.90;;;;;;6220531;23;20017;-83
2023/07/09 01:03:10;;;;;;;6.50;5.90;;;19.80;99.90;;;;;;6220047;23;20013;-84
2023/07/09 01:05:38;;;;;;;6.63;6.05;;;19.80;99.90;;;;;;6218390;23;20044;-83
2023/07/09 01:08:05;;;;;;;6.15;5.65;;;19.70;99.90;;;;;;6217850;23;20024;-86
2023/07/09 01:10:31;;;;;;;6.63;5.95;;;19.70;99.90;;;;;;6218632;23;20024;-83
2023/07/09 01:12:57;;;;;;;6.20;5.65;;;19.70;99.90;;;;;;6192409;23;20072;-86
2023/07/09 01:15:23;;;;;;;4.53;2.55;;;19.60;99.90;;;;;;6217780;23;20020;-84
2023/07/09 01:17:53;;;;;;;4.20;2.88;;;19.70;99.90;;;;;;6191075;23;20012;-83
2023/07/09 01:20:21;;;;;;;4.32;2.97;;;19.60;99.90;;;;;;6191340;23;20324;-85
2023/07/09 01:22:55;;;;;;;5.32;4.88;;;19.60;99.90;;;;;;6217627;23;20143;-85
2023/07/09 01:25:21;;;;;;;5.50;3.67;;;19.50;99.90;;;;;;6217614;23;20108;-84
2023/07/09 01:27:48;;;;;;;4.55;4.10;;;19.50;99.90;;;;;;6217419;23;20017;-84
2023/07/09 01:30:34;;;;;;;7.18;3.97;;;19.50;99.90;;;;;;6190010;23;20036;-84
2023/07/09 01:33:01;;;;;;;8.10;7.32;;;19.40;99.90;;;;;;6217204;23;20020;-85
2023/07/09 01:35:28;;;;;;;11.73;10.82;;;19.40;99.90;;;;;;6218281;23;20020;-85
2023/07/09 01:37:55;;;;;;;4.07;3.38;;;19.40;99.90;;;;;;6191844;23;20024;-85
2023/07/09 01:40:23;;;;;;;13.32;12.32;;;19.30;99.90;;;;;;6215350;23;20095;-84
2023/07/09 01:42:50;;;;;;;18.45;17.00;;;19.30;99.90;;;;;;6216575;23;20073;-86
2023/07/09 01:45:16;;;;;;;9.80;8.90;;;19.30;99.90;;;;;;6190641;23;20020;-86
2023/07/09 01:47:43;;;;;;;4.45;3.97;;;19.10;99.90;;;;;;6217014;23;20012;-87
2023/07/09 01:50:10;;;;;;;4.90;3.75;;;19.10;99.90;;;;;;6216708;23;20025;-84
2023/07/09 01:52:38;;;;;;;6.10;4.88;;;19.10;99.90;;;;;;6190964;23;20021;-87
2023/07/09 01:55:05;;;;;;;4.18;3.28;;;19.10;99.90;;;;;;6217975;23;20020;-85
2023/07/09 01:57:33;;;;;;;9.90;8.82;;;19.10;99.90;;;;;;6217548;23;20027;-85
2023/07/09 02:00:04;;;;;;;5.07;3.33;;;19.00;99.90;;;;;;6216580;23;20091;-84
2023/07/09 02:02:31;;;;;;;5.22;4.13;;;18.90;99.90;;;;;;6216655;23;20036;-85
2023/07/09 02:04:58;;;;;;;6.50;4.45;;;18.90;99.90;;;;;;6219899;23;20025;-85
2023/07/09 02:07:24;;;;;;;17.63;16.17;;;18.80;99.90;;;;;;6217435;23;20054;-87
2023/07/09 02:09:51;;;;;;;6.97;5.38;;;18.70;99.90;;;;;;6164623;23;20440;-85
2023/07/09 02:12:18;;;;;;;29.63;27.48;;;18.60;99.90;;;;;;6215925;23;20016;-84
2023/07/09 02:14:45;;;;;;;4.82;4.38;;;18.60;99.90;;;;;;6216465;23;20021;-86
2023/07/09 02:17:12;;;;;;;6.72;5.63;;;18.60;99.90;;;;;;6216205;23;20071;-85
2023/07/09 02:19:38;;;;;;;24.38;22.55;;;18.50;99.90;;;;;;6215608;23;20074;-88
2023/07/09 02:22:05;;;;;;;7.97;6.93;;;18.40;99.90;;;;;;6215936;23;20024;-84
2023/07/09 02:24:31;;;;;;;43.75;40.65;;;18.40;99.90;;;;;;6216194;23;20021;-85
2023/07/09 02:26:59;;;;;;;53.30;49.33;;;18.40;99.90;;;;;;6189063;23;20451;-84
2023/07/09 02:29:26;;;;;;;17.75;16.42;;;18.40;99.90;;;;;;6215549;23;20506;-85
2023/07/09 02:31:54;;;;;;;12.43;11.35;;;18.40;99.90;;;;;;6215864;23;20028;-86
2023/07/09 02:34:21;;;;;;;15.05;13.95;;;18.40;99.90;;;;;;6189250;23;20425;-84
2023/07/09 02:36:47;;;;;;;14.90;13.80;;;18.40;99.90;;;;;;6215622;23;20029;-83
2023/07/09 02:39:14;;;;;;;10.35;9.45;;;18.40;99.90;;;;;;6188957;23;20028;-84
2023/07/09 02:41:40;;;;;;;10.35;9.40;;;18.40;99.90;;;;;;6215210;23;20024;-86
2023/07/09 02:44:07;;;;;;;15.18;14.05;;;18.40;99.90;;;;;;6215257;23;20031;-84
2023/07/09 02:46:33;;;;;;;9.45;8.68;;;18.30;99.90;;;;;;6215804;23;20083;-86
2023/07/09 02:49:00;;;;;;;71.47;66.22;;;18.30;99.90;;;;;;6188986;23;20107;-85
2023/07/09 02:51:26;;;;;;;67.32;62.22;;;18.30;99.90;;;;;;6215495;23;20079;-85
2023/07/09 02:53:56;;;;;;;11.10;10.10;;;18.30;99.90;;;;;;6215634;23;20351;-84
2023/07/09 02:56:23;;;;;;;66.18;61.35;;;18.30;99.90;;;;;;6215469;23;20021;-83
2023/07/09 02:58:50;;;;;;;11.25;10.30;;;18.30;99.90;;;;;;6188832;23;20020;-84
2023/07/09 03:01:16;;;;;;;63.65;58.97;;;18.30;99.90;;;;;;6188423;23;20016;-83
2023/07/09 03:03:42;;;;;;;10.90;9.80;;;18.30;99.90;;;;;;6215523;23;20100;-85
2023/07/09 03:06:08;;;;;;;11.90;10.95;;;18.30;99.90;;;;;;6215278;23;20075;-83
2023/07/09 03:08:33;;;;;;;15.40;14.15;;;18.30;99.90;;;;;;6215324;23;20074;-84
2023/07/09 03:11:00;;;;;;;13.85;12.65;;;18.30;99.90;;;;;;6188083;23;20029;-83
2023/07/09 03:13:26;;;;;;;13.40;12.20;;;18.30;99.90;;;;;;6214683;23;20031;-84
2023/07/09 03:15:58;;;;;;;99.57;92.25;;;18.30;99.90;;;;;;6215248;23;20013;-85
2023/07/09 03:18:24;;;;;;;17.35;16.10;;;18.30;99.90;;;;;;6215505;23;20021;-83
2023/07/09 03:20:51;;;;;;;65.65;60.75;;;18.30;99.90;;;;;;6215699;23;20033;-83
2023/07/09 03:23:17;;;;;;;78.70;72.60;;;18.20;99.90;;;;;;6215475;23;20062;-85
2023/07/09 03:25:43;;;;;;;63.83;59.05;;;18.20;99.90;;;;;;6215926;23;20329;-84
2023/07/09 03:28:10;;;;;;;69.95;64.82;;;18.20;99.90;;;;;;6215606;23;20031;-84
2023/07/09 03:30:41;;;;;;;12.02;10.98;;;18.20;99.90;;;;;;6216077;23;20348;-84
2023/07/09 03:33:07;;;;;;;16.02;14.85;;;18.20;99.90;;;;;;6215704;23;20020;-84
2023/07/09 03:35:34;;;;;;;12.77;11.55;;;18.20;99.90;;;;;;6188890;23;20864;-84
2023/07/09 03:38:00;;;;;;;11.68;10.68;;;18.20;99.90;;;;;;6188780;23;20351;-84
2023/07/09 03:40:25;;;;;;;42.45;39.40;;;18.20;99.90;;;;;;6189091;23;20048;-84
2023/07/09 03:42:51;;;;;;;51.67;47.92;;;18.20;99.90;;;;;;6215154;23;20060;-83
2023/07/09 03:45:17;;;;;;;65.03;60.22;;;18.20;99.90;;;;;;6189218;23;20451;-83
2023/07/09 03:47:42;;;;;;;14.68;13.50;;;18.20;99.90;;;;;;6215928;23;20025;-83
2023/07/09 03:50:09;;;;;;;69.18;64.07;;;18.20;99.90;;;;;;6189364;23;20147;-85
2023/07/09 03:52:35;;;;;;;16.77;15.50;;;18.20;99.90;;;;;;6216301;23;20036;-84
2023/07/09 03:55:03;;;;;;;21.65;19.98;;;18.20;99.90;;;;;;6188277;23;20055;-84
2023/07/09 03:57:30;;;;;;;19.48;18.08;;;18.20;99.90;;;;;;6188818;23;20021;-84
2023/07/09 03:59:56;;;;;;;14.65;13.48;;;18.20;99.90;;;;;;6215083;23;20028;-84
2023/07/09 04:02:22;;;;;;;78.28;72.60;;;18.20;99.90;;;;;;6188648;23;20339;-84
2023/07/09 04:04:48;;;;;;;78.93;73.00;;;18.20;99.90;;;;;;6215230;23;20021;-84
2023/07/09 04:07:13;;;;;;;92.00;84.88;;;18.30;99.90;;;;;;6188313;23;20028;-83
2023/07/09 04:09:39;;;;;;;100.20;92.40;;;18.30;99.90;;;;;;6188726;23;20035;-84
2023/07/09 04:12:05;;;;;;;43.17;40.42;;;18.30;99.90;;;;;;6215235;23;20021;-84
2023/07/09 04:14:31;;;;;;;146.95;135.68;;;18.30;99.90;;;;;;6215346;23;20451;-83
2023/07/09 04:16:57;;;;;;;82.93;77.82;;;18.30;99.90;;;;;;6188417;23;20021;-83
2023/07/09 04:19:23;;;;;;;200.70;185.48;;;18.40;99.90;;;;;;6215262;23;20355;-83
2023/07/09 04:21:49;;;;;;;191.40;176.80;;;18.40;99.90;;;;;;6215045;23;20070;-84
2023/07/09 04:24:17;;;;;;;46.20;43.17;;;18.40;99.90;;;;;;6215096;23;20433;-83
2023/07/09 04:26:43;;;;;;;439.73;407.67;;;18.40;99.90;;;;;;6214366;23;20027;-83
2023/07/09 04:29:10;;;;;;;440.77;408.23;;;18.40;99.90;;;;;;6214816;23;20029;-84
2023/07/09 04:31:36;;;;;;;474.02;433.35;;;18.50;99.90;;;;;;6215527;23;20051;-84
2023/07/09 04:34:01;;;;;;;748.33;691.38;;;18.50;99.90;;;;;;6188293;23;20086;-86
2023/07/09 04:36:27;;;;;;;487.70;444.30;;;18.50;99.90;;;;;;6215141;23;20017;-84
2023/07/09 04:38:53;;;;;;;137.82;129.63;;;18.60;99.90;;;;;;6214945;23;20451;-84
2023/07/09 04:41:18;;;;;;;61.38;57.42;;;18.70;99.90;;;;;;6214630;23;20017;-84
2023/07/09 04:43:44;;;;;;;338.05;314.42;;;18.70;99.90;;;;;;6214287;23;20056;-83
2023/07/09 04:46:10;;;;;;;42.60;39.58;;;19.10;99.90;;;;;;6188139;23;20071;-83
2023/07/09 04:48:36;;;;;;;81.07;76.10;;;18.80;99.90;;;;;;6214805;23;20021;-83
2023/07/09 04:51:01;;;;;;;58.28;54.75;;;18.90;99.90;;;;;;6215043;23;20020;-84
2023/07/09 04:53:27;;;;;;;24.58;22.83;;;18.90;99.90;;;;;;6188159;23;20024;-83
2023/07/09 04:55:53;;;;;;;115.35;108.38;;;19.00;99.90;;;;;;6215039;23;20017;-83
2023/07/09 04:58:19;;;;;;;246.95;228.65;;;19.00;99.90;;;;;;6187295;23;20340;-83
2023/07/09 05:00:45;;;;;;;297.83;276.38;;;19.10;99.90;;;;;;6163026;23;20016;-83
2023/07/09 05:03:11;;;;;;;50.83;47.15;;;19.20;99.90;;;;;;6188126;23;20032;-83
2023/07/09 05:05:45;;;;;;;7.55;6.70;;;19.30;99.90;;;;;;6215843;23;20393;-83
2023/07/09 05:08:12;;;;;;;46.65;43.40;;;19.30;99.90;;;;;;6216838;23;20027;-84
2023/07/09 05:10:45;;;;;;;187.45;173.50;;;19.40;99.90;;;;;;6215917;23;20023;-85
2023/07/09 05:13:12;;;;;;;139.85;131.27;;;19.50;99.90;;;;;;6216475;23;20316;-84
2023/07/09 05:15:41;;;;;;;217.25;200.68;;;19.60;99.90;;;;;;6216786;23;20012;-83
2023/07/09 05:18:07;;;;;;;46.72;43.67;;;19.70;99.90;;;;;;6216699;23;20154;-84
2023/07/09 05:20:34;;;;;;;164.30;154.73;;;19.70;99.90;;;;;;6216419;23;20029;-86
2023/07/09 05:23:00;;;;;;;599.97;560.42;;;19.80;99.90;;;;;;6189562;23;20021;-84
2023/07/09 05:25:26;;;;;;;608.17;568.05;;;19.90;99.90;;;;;;6216893;23;20021;-85
2023/07/09 05:27:51;;;;;;;337.90;320.15;;;20.00;99.90;;;;;;6217006;23;20078;-84
2023/07/09 05:30:18;;;;;;;712.53;664.28;;;20.10;99.90;;;;;;6216827;23;20020;-85
2023/07/09 05:32:44;;;;;;;537.72;483.17;;;20.20;99.90;;;;;;6216439;23;20020;-85
2023/07/09 05:35:10;;;;;;;583.92;496.58;;;20.30;99.90;;;;;;6216436;23;20023;-85
2023/07/09 05:37:38;;;;;;;796.88;729.55;;;20.40;99.90;;;;;;6217113;23;20047;-85
2023/07/09 05:40:08;;;;;;;7.25;2.95;;;20.50;99.90;;;;;;6217671;23;20048;-84
2023/07/09 05:42:34;;;;;;;268.27;253.32;;;20.70;99.90;;;;;;6215859;23;20031;-82
2023/07/09 05:45:00;;;;;;;855.05;757.97;;;20.80;99.90;;;;;;6215228;23;20111;-85
2023/07/09 05:47:26;;;;;;;448.77;417.33;;;20.90;99.90;;;;;;6216454;23;20520;-84
2023/07/09 05:49:52;;;;;;;468.45;435.75;;;20.90;99.90;;;;;;6217220;23;20313;-85
2023/07/09 05:52:19;;;;;;;719.92;671.70;;;20.90;99.90;;;;;;6216862;23;20068;-84
2023/07/09 05:54:46;;;;;;;801.00;737.53;;;21.20;99.90;;;;;;6216284;23;20083;-85
2023/07/09 05:57:11;;;;;;;861.50;769.30;;;21.30;99.90;;;;;;6190156;23;20024;-84
2023/07/09 05:59:37;;;;;;;1041.60;771.10;;;21.40;99.90;;;;;;6189985;23;20021;-87
2023/07/09 06:02:04;;;;;;;1268.13;646.70;;;21.60;99.90;;;;;;6216931;23;20021;-84
2023/07/09 06:04:31;;;;;;;1310.22;640.92;;;21.80;99.90;;;;;;6215366;23;20124;-85
2023/07/09 06:06:57;;;;;;;1237.38;641.80;;;21.90;99.90;;;;;;6216525;23;20110;-85
2023/07/09 06:09:23;;;;;;;1331.17;746.77;;;22.10;99.90;;;;;;6216786;23;20017;-86
2023/07/09 06:11:49;;;;;;;1356.43;761.60;;;22.20;99.90;;;;;;6189862;23;20055;-84
2023/07/09 06:14:16;;;;;;;1327.43;803.05;;;22.40;99.90;;;;;;6189455;23;20023;-84
2023/07/09 06:16:43;;;;;;;1208.00;697.00;;;22.50;99.90;;;;;;6189341;23;20039;-84
2023/07/09 06:19:09;;;;;;;1341.17;779.40;;;22.60;99.90;;;;;;6216195;23;20028;-84
2023/07/09 06:21:35;;;;;;;1390.70;649.22;;;22.70;99.90;;;;;;6189824;23;20088;-84
2023/07/09 06:24:01;;;;;;;1377.37;665.27;;;22.70;99.90;;;;;;6164669;23;20387;-84
2023/07/09 06:26:27;;;;;;;1332.37;747.47;;;22.70;99.90;;;;;;6217631;23;20059;-87
2023/07/09 06:29:44;;;;;;;1350.47;752.40;;;22.80;99.90;;;;;;6217501;23;20024;-92
2023/07/09 06:33:16;;;;;;;1341.82;745.92;;;22.70;99.90;;;;;;6216480;23;20052;-89
2023/07/09 06:53:51;;;;;;;;;;;23.90;99.90;;;;;;6195885;22;20032;-87
2023/07/09 06:57:01;;;;;;;1411.43;651.80;;;24.10;99.90;;;;;;6215609;23;20310;-88
2023/07/09 07:03:20;;;;;;;3.65;2.20;;;24.50;99.90;;;;;;6215693;23;20016;-88
2023/07/09 07:05:50;;;;;;;1364.27;613.73;;;24.60;99.90;;;;;;6164517;23;20416;-87
2023/07/09 07:08:18;;;;;;;1369.00;642.73;;;24.70;99.90;;;;;;6215478;23;20012;-86
2023/07/09 07:10:46;;;;;;;1325.70;649.03;;;24.70;99.90;;;;;;6215856;23;20033;-88
2023/07/09 07:13:15;;;;;;;953.87;608.67;;;24.70;99.90;;;;;;6189233;23;20056;-87
2023/07/09 07:15:41;;;;;;;4.47;2.75;;;24.80;99.90;;;;;;6216327;23;20024;-82
2023/07/09 07:18:08;;;;;;;4.70;2.90;;;25.00;99.90;;;;;;6188441;23;20666;-82
2023/07/09 07:20:34;;;;;;;3.85;2.00;;;25.10;99.90;;;;;;6215407;23;20016;-80
2023/07/09 07:23:00;;;;;;;3.55;2.70;;;25.30;99.90;;;;;;6216310;23;20099;-82
2023/07/09 07:25:26;;;;;;;4.35;2.75;;;25.50;99.90;;;;;;6216104;23;20110;-81
2023/07/09 07:27:53;;;;;;;14.38;12.90;;;25.60;99.90;;;;;;6215707;23;20020;-82
2023/07/09 07:30:18;;;;;;;1135.03;697.55;;;25.80;99.90;;;;;;6216047;23;20095;-81
2023/07/09 07:32:47;;;;;;;1221.88;699.22;;;26.10;99.90;;;;;;6188823;23;20388;-81
2023/07/09 07:35:13;;;;;;;1219.00;681.77;;;26.30;99.90;;;;;;6189459;23;20048;-82
2023/07/09 07:37:42;;;;;;;540.03;305.88;;;26.40;99.90;;;;;;6189269;23;20020;-81
2023/07/09 07:40:09;;;;;;;505.75;441.30;;;26.70;99.90;;;;;;6188666;23;20103;-81
2023/07/09 07:42:35;;;;;;;1331.13;851.08;;;26.90;99.90;;;;;;6189045;23;20031;-81
2023/07/09 07:45:01;;;;;;;653.70;597.45;;;27.00;99.90;;;;;;6215609;23;20122;-81
2023/07/09 07:47:27;;;;;;;1413.97;867.47;;;27.20;99.90;;;;;;6215564;23;20016;-81
2023/07/09 07:49:54;;;;;;;1414.67;698.57;;;27.20;99.90;;;;;;6215914;23;20028;-82
2023/07/09 07:52:20;;;;;;;1266.03;709.03;;;27.30;99.90;;;;;;6215101;23;20063;-82
2023/07/09 07:54:46;;;;;;;784.10;376.63;;;27.30;99.90;;;;;;6189133;23;20027;-81
2023/07/09 07:57:12;;;;;;;25.83;19.15;;;27.40;99.90;;;;;;6215608;23;20190;-81
2023/07/09 07:59:38;;;;;;;704.45;541.35;;;27.30;99.90;;;;;;6215177;23;20025;-81
2023/07/09 08:02:06;;;;;;;1221.53;813.97;;;27.50;99.90;;;;;;6215717;23;20028;-81
2023/07/09 08:04:32;;;;;;;1126.30;618.77;;;27.60;99.90;;;;;;6215534;23;20031;-82
2023/07/09 08:06:58;;;;;;;961.77;576.83;;;27.80;99.90;;;;;;6188930;23;20107;-82
2023/07/09 08:09:25;;;;;;;1091.43;637.10;;;28.00;99.90;;;;;;6215780;23;20079;-82
2023/07/09 08:11:51;;;;;;;1047.07;665.83;;;28.20;99.90;;;;;;6214781;23;20015;-81
2023/07/09 08:14:17;;;;;;;308.03;168.27;;;28.30;99.90;;;;;;6216077;23;20370;-84
2023/07/09 08:16:43;;;;;;;460.33;196.90;;;28.40;99.90;;;;;;6188945;23;20103;-81
2023/07/09 08:19:09;;;;;;;494.03;202.00;;;28.50;99.90;;;;;;6215764;23;20063;-81
2023/07/09 08:21:34;;;;;;;594.40;204.43;;;28.60;99.90;;;;;;6214682;23;20028;-82
2023/07/09 08:24:00;;;;;;;583.77;222.57;;;28.90;99.90;;;;;;6214824;23;20021;-81
2023/07/09 08:26:26;;;;;;;779.60;316.93;;;29.10;99.90;;;;;;6188039;23;20016;-81
2023/07/09 08:28:53;;;;;;;297.15;156.90;;;29.40;99.90;;;;;;6215373;23;20021;-83
2023/07/09 08:31:19;;;;;;;289.67;155.73;;;29.40;99.90;;;;;;6215597;23;20019;-84
2023/07/09 08:33:44;;;;;;;;;;;29.50;99.90;;;;;;6188910;23;20538;-81
2023/07/09 08:36:10;;;;;;;201.07;134.03;;;29.50;99.90;;;;;;6213806;23;20425;-82
2023/07/09 08:38:36;;;;;;;424.40;185.45;;;29.70;99.90;;;;;;6215395;23;20343;-82
2023/07/09 08:41:25;;;;;;;311.80;173.07;;;29.70;99.90;;;;;;6189117;23;20025;-81
2023/07/09 08:44:09;;;;;;;272.67;164.85;;;29.80;99.90;;;;;;6216985;23;20055;-82
2023/07/09 08:46:45;;;;;;;;;;;29.80;99.90;;;;;;6217513;23;20029;-81
2023/07/09 08:49:26;;;;;;;266.67;158.65;;;29.80;99.90;;;;;;6215421;23;20503;-82
2023/07/09 08:51:54;;;;;;;311.80;165.57;;;29.80;99.90;;;;;;6189771;23;20087;-81
2023/07/09 08:54:28;;;;;;;310.77;167.18;;;29.90;99.90;;;;;;6216381;23;20025;-82
2023/07/09 08:56:58;;;;;;;150.05;132.20;;;30.10;99.90;;;;;;6217043;23;20047;-84
2023/07/09 08:59:24;;;;;;;;;;;30.10;99.80;;;;;;6217086;23;20020;-82
2023/07/09 09:01:55;;;;;;;64.38;60.58;;;30.30;99.90;;;;;;6215517;23;20430;-83
2023/07/09 09:04:33;;;;;;;;;;;30.60;99.90;;;;;;6190618;23;20377;-82
2023/07/09 09:07:05;;;;;;;;;;;30.70;99.90;;;;;;6217364;23;19920;-82
2023/07/09 09:09:35;;;;;;;;;;;30.80;98.90;;;;;;6217051;23;19958;-83
2023/07/09 09:12:15;;;;;;;;;;;30.90;99.90;;;;;;6217453;23;20014;-81
2023/07/09 09:14:52;;;;;;;;;;;30.90;99.50;;;;;;6217036;23;19972;-82
2023/07/09 09:17:18;;;;;;;;;;;31.00;99.90;;;;;;6190337;23;19979;-82
2023/07/09 09:19:50;;;;;;;;;;;31.00;99.70;;;;;;6217558;23;19971;-85
2023/07/09 09:22:19;;;;;;;;;;;31.00;98.80;;;;;;6217025;23;19976;-86
2023/07/09 09:25:04;;;;;;;;;;;30.90;99.50;;;;;;6189576;23;19984;-87
2023/07/09 09:27:31;;;;;;;;;;;30.90;99.80;;;;;;6190655;23;19979;-84
2023/07/09 09:29:56;;;;;;;;;;;30.80;99.60;;;;;;6165288;23;20302;-85
2023/07/09 09:32:30;;;;;;;;;;;30.80;99.10;;;;;;6217234;23;20037;-87
2023/07/09 09:34:56;;;;;;;;;;;30.50;97.80;;;;;;6190206;23;20427;-83
2023/07/09 09:37:29;;;;;;;;;;;30.50;97.90;;;;;;6218016;23;19973;-86
2023/07/09 09:39:55;;;;;;;;;;;30.50;99.00;;;;;;6192139;23;19975;-84
2023/07/09 09:42:23;;;;;;;;;;;30.40;98.30;;;;;;6190033;23;19983;-86
2023/07/09 09:44:48;;;;;;;;;;;30.40;99.20;;;;;;6218461;23;20412;-83
2023/07/09 09:47:14;;;;;;;;;;;30.60;99.90;;;;;;6189547;23;19923;-85
2023/07/09 09:49:41;;;;;;;353.33;175.75;;;30.90;99.90;;;;;;6188890;23;21009;-83
2023/07/09 09:52:18;;;;;;;596.55;197.73;;;30.80;99.40;;;;;;6215194;23;20051;-83
2023/07/09 09:54:54;;;;;;;373.70;178.75;;;31.00;99.30;;;;;;6216097;23;20017;-84
2023/07/09 09:57:23;;;;;;;341.55;182.02;;;31.10;99.60;;;;;;6189289;23;20451;-82
2023/07/09 09:59:50;;;;;;;1256.00;723.00;;;31.00;98.60;;;;;;6216295;23;20390;-84
2023/07/09 10:02:19;;;;;;;1163.17;668.00;;;31.10;99.90;;;;;;6189050;23;20033;-84
2023/07/09 10:04:45;;;;;;;1188.10;612.07;;;31.00;98.50;;;;;;6216102;23;20055;-83
2023/07/09 10:07:33;;;;;;;1220.40;718.00;;;30.90;98.00;;;;;;6216213;23;20048;-84
2023/07/09 10:09:59;;;;;;;954.47;578.37;;;31.00;97.90;;;;;;6123903;23;20030;-82
2023/07/09 10:12:36;;;;;;;790.03;325.83;;;30.90;98.00;;;;;;6124118;23;20097;-85
2023/07/09 10:15:18;;;;;;;827.60;412.40;;;31.20;97.80;;;;;;6123767;23;20101;-85
2023/07/09 10:18:09;;;;;;;862.43;570.40;;;31.00;98.30;;;;;;6123792;23;20025;-84
2023/07/09 10:20:40;;;;;;;899.97;551.83;;;30.90;98.10;;;;;;6123970;23;20033;-84
2023/07/09 10:23:35;;;;;;;894.27;499.27;;;31.20;99.20;;;;;;6123309;23;20022;-84
2023/07/09 10:26:26;;;;;;;875.17;477.08;;;31.20;98.10;;;;;;6123924;23;20748;-86
2023/07/09 10:29:24;;;;;;;860.67;470.20;;;31.10;97.00;;;;;;6123600;23;20065;-85
2023/07/09 10:32:13;;;;;;;808.20;518.20;;;31.20;96.60;;;;;;6123739;23;20030;-84
2023/07/09 10:34:47;;;;;;;798.03;509.80;;;31.40;96.90;;;;;;6075373;23;20025;-83
2023/07/09 10:37:31;;;;;;;865.20;505.20;;;31.60;96.50;;;;;;6098976;23;20822;-86
2023/07/09 10:39:58;;;;;;;977.03;616.80;;;31.40;96.50;;;;;;6123597;23;20077;-84
2023/07/09 10:42:35;;;;;;;953.83;617.10;;;31.30;94.60;;;;;;6123588;23;20030;-86
2023/07/09 10:45:38;;;;;;;960.30;608.43;;;31.10;94.60;;;;;;6075151;23;20126;-85
2023/07/09 10:48:39;;;;;;;1018.30;676.43;;;31.40;94.30;;;;;;6122935;23;20095;-84
2023/07/09 10:51:29;;;;;;;1065.33;684.97;;;31.10;95.30;;;;;;6128194;23;20064;-84
2023/07/09 10:54:02;;;;;;;1085.20;629.37;;;31.30;95.50;;;;;;6152411;23;20025;-85
2023/07/09 10:56:33;;;;;;;1048.67;686.30;;;31.30;94.70;;;;;;6153436;23;20106;-86
2023/07/09 10:59:20;;;;;;;1066.67;621.00;;;31.20;94.30;;;;;;6152821;23;20048;-85
2023/07/09 11:01:54;;;;;;;1079.17;624.10;;;31.30;95.30;;;;;;6154240;23;20384;-84
2023/07/09 11:04:31;;;;;;;1125.20;721.23;;;31.20;94.70;;;;;;6153237;23;20088;-87
2023/07/09 11:07:00;;;;;;;1085.50;640.17;;;31.20;93.90;;;;;;6155018;23;20085;-82
2023/07/09 11:09:32;;;;;;;1037.87;626.70;;;31.10;94.10;;;;;;6153431;23;20022;-85
2023/07/09 11:12:04;;;;;;;1039.53;678.57;;;30.90;94.10;;;;;;6128603;23;20587;-89
2023/07/09 11:14:46;;;;;;;1049.77;675.20;;;31.20;94.90;;;;;;6153234;23;20022;-88
2023/07/09 11:17:19;;;;;;;1063.30;688.80;;;31.20;94.90;;;;;;6153410;23;20073;-87
2023/07/09 11:20:07;;;;;;;1054.67;680.47;;;31.30;94.40;;;;;;6129008;23;20112;-90
2023/07/09 11:22:39;;;;;;;1030.70;624.70;;;31.20;94.00;;;;;;6133669;23;20017;-89
2023/07/09 11:25:10;;;;;;;1019.77;671.17;;;31.30;94.70;;;;;;6189292;23;20034;-88
2023/07/09 11:27:49;;;;;;;986.80;615.77;;;31.20;95.50;;;;;;6214330;23;20486;-89
2023/07/09 11:30:27;;;;;;;995.07;616.73;;;31.10;94.60;;;;;;6166667;23;20029;-87
2023/07/09 11:32:56;;;;;;;995.83;682.20;;;31.20;95.30;;;;;;6214020;23;20020;-88
2023/07/09 11:35:27;;;;;;;1007.63;614.97;;;31.40;95.30;;;;;;6189692;23;20021;-87
2023/07/09 11:37:54;;;;;;;908.23;596.83;;;31.40;93.20;;;;;;6217215;23;20016;-87
2023/07/09 11:40:22;;;;;;;1027.63;676.20;;;31.70;94.10;;;;;;6217037;23;20020;-88
2023/07/09 11:42:56;;;;;;;988.87;615.43;;;31.80;93.10;;;;;;6191015;23;20017;-88
2023/07/09 11:45:33;;;;;;;967.40;611.92;;;31.90;93.20;;;;;;6191392;23;20443;-89
2023/07/09 11:48:33;;;;;;;954.03;604.00;;;31.90;92.90;;;;;;6191483;23;20068;-90
2023/07/09 11:51:11;;;;;;;1007.57;689.83;;;31.80;93.20;;;;;;6158183;23;20548;-89
2023/07/09 11:53:54;;;;;;;1056.73;640.00;;;31.90;91.60;;;;;;6155061;23;20073;-89
2023/07/09 11:56:27;;;;;;;1066.57;632.03;;;32.00;91.20;;;;;;6131724;23;20025;-88
2023/07/09 11:58:57;;;;;;;1021.87;694.80;;;32.00;90.80;;;;;;6147619;23;20029;-87
2023/07/09 12:01:34;;;;;;;1043.90;632.93;;;31.90;92.00;;;;;;6160099;23;20336;-88
2023/07/09 12:04:00;;;;;;;1111.97;733.13;;;31.70;92.10;;;;;;6186732;23;20095;-89
2023/07/09 12:06:32;;;;;;;1113.90;653.60;;;32.00;92.10;;;;;;6159849;23;20053;-84
2023/07/09 12:09:02;;;;;;;1008.10;688.23;;;32.10;92.60;;;;;;6185976;23;20021;-88
2023/07/09 12:11:32;;;;;;;1027.10;631.70;;;32.00;91.80;;;;;;6159202;23;20028;-83
2023/07/09 12:14:09;;;;;;;1123.70;630.30;;;32.30;92.60;;;;;;6185410;23;20023;-85
2023/07/09 12:16:40;;;;;;;1058.80;705.47;;;32.50;92.10;;;;;;6160358;23;20072;-86
2023/07/09 12:19:07;;;;;;;1077.20;630.80;;;32.50;91.00;;;;;;6187424;23;20044;-82
2023/07/09 12:21:38;;;;;;;1066.17;705.17;;;32.60;92.60;;;;;;6187094;23;20025;-86
2023/07/09 12:24:21;;;;;;;1022.47;696.13;;;32.70;92.50;;;;;;6188173;23;20014;-85
2023/07/09 12:26:58;;;;;;;1101.10;623.63;;;32.60;92.50;;;;;;6186909;23;20028;-85
2023/07/09 12:29:34;;;;;;;1061.77;707.33;;;32.70;91.70;;;;;;6186559;23;20021;-86
2023/07/09 12:32:10;;;;;;;1117.73;627.03;;;32.80;93.00;;;;;;6187108;23;20017;-85
2023/07/09 12:34:35;;;;;;;1090.60;723.37;;;33.00;91.90;;;;;;6186487;23;20061;-84
2023/07/09 12:37:01;;;;;;;1215.00;616.73;;;33.20;90.80;;;;;;6187055;23;20025;-82
2023/07/09 12:39:31;;;;;;;1106.93;738.47;;;33.20;91.70;;;;;;6186651;23;20515;-83
2023/07/09 12:42:00;;;;;;;1116.57;729.63;;;33.10;92.80;;;;;;6161289;23;20071;-82
2023/07/09 12:44:36;;;;;;;1134.50;727.07;;;33.10;92.40;;;;;;6186861;23;20024;-83
2023/07/09 12:47:02;;;;;;;1111.27;725.77;;;33.40;93.20;;;;;;6186670;23;20463;-86
2023/07/09 12:49:30;;;;;;;1139.40;621.60;;;33.60;91.60;;;;;;6160458;23;20028;-84
2023/07/09 12:52:02;;;;;;;1097.33;702.57;;;33.20;92.50;;;;;;6160375;23;20080;-83
2023/07/09 12:54:30;;;;;;;1107.50;706.33;;;33.20;92.00;;;;;;6186551;23;20028;-84
2023/07/09 12:56:59;;;;;;;1193.83;613.83;;;33.10;93.10;;;;;;6160339;23;20056;-83
2023/07/09 12:59:38;;;;;;;1179.97;607.07;;;33.10;93.20;;;;;;6160489;23;20029;-85
2023/07/09 13:02:20;;;;;;;1227.40;629.87;;;32.70;92.30;;;;;;6188627;23;20013;-83
2023/07/09 13:04:47;;;;;;;1230.17;623.20;;;32.70;92.60;;;;;;6186993;23;20017;-85